Terminal Aerodrome Forecast
Issued by NWS

Current Version | Previous Version | Text Only | Print | Product List | Glossary On
Versions: 1 2 3 4 5 6 7 8 9 10 11 12 13 14 15 16 17 18 19 20 21 22 23 24 25 26 27 28 29 30 31 32 33 34 35 36 37 38 39 40 41 42 43 44 45 46 47 48 49 50
000
FTUS45 KBOU 052343 AAA
TAFBJC
TAF AMD
KBJC 052343Z 0600/0624 05006KT 4SM -RA BR BKN004 OVC010
      TEMPO 0600/0604 1 1/2SM RA BR BKN003
     FM060400 29004KT P6SM VCSH SCT015 OVC040
     FM061600 12006KT P6SM SCT035 OVC060
     FM062000 04006KT P6SM SCT030 BKN070 OVC120 PROB30 0620/0624
      VRB15G30KT -TSRA BKN020CB=

USA.gov is the U.S. government's official web portal to all federal, state and local government web resources and services.